sensor_id;sensor_type;location;lat;lon;timestamp;P1;durP1;ratioP1;P2;durP2;ratioP2
67344;SDS011;54230;52.402;6.276;2023-04-24T00:00:00;3.2;;;2.2;;
67344;SDS011;54230;52.402;6.276;2023-04-24T00:05:00;3.0;;;2.3;;
67344;SDS011;54230;52.402;6.276;2023-04-24T00:10:00;3.6;;;2.5;;
67344;SDS011;54230;52.402;6.276;2023-04-24T00:15:00;3.9;;;2.7;;
67344;SDS011;54230;52.402;6.276;2023-04-24T00:20:00;3.9;;;2.4;;
67344;SDS011;54230;52.402;6.276;2023-04-24T00:25:00;4.8;;;2.7;;
67344;SDS011;54230;52.402;6.276;2023-04-24T00:30:00;4.1;;;2.7;;
67344;SDS011;54230;52.402;6.276;2023-04-24T00:35:00;6.8;;;3.2;;
67344;SDS011;54230;52.402;6.276;2023-04-24T00:40:00;5.2;;;3.4;;
67344;SDS011;54230;52.402;6.276;2023-04-24T00:45:00;5.5;;;3.9;;
67344;SDS011;54230;52.402;6.276;2023-04-24T00:50:01;6.5;;;3.7;;
67344;SDS011;54230;52.402;6.276;2023-04-24T00:55:00;5.3;;;3.3;;
67344;SDS011;54230;52.402;6.276;2023-04-24T01:00:00;5.6;;;3.5;;
67344;SDS011;54230;52.402;6.276;2023-04-24T01:05:00;6.8;;;3.8;;
67344;SDS011;54230;52.402;6.276;2023-04-24T01:10:00;7.3;;;4.3;;
67344;SDS011;54230;52.402;6.276;2023-04-24T01:15:00;7.7;;;4.4;;
67344;SDS011;54230;52.402;6.276;2023-04-24T01:20:00;7.4;;;4.6;;
67344;SDS011;54230;52.402;6.276;2023-04-24T01:25:00;6.9;;;4.3;;
67344;SDS011;54230;52.402;6.276;2023-04-24T01:30:00;7.4;;;5.1;;
67344;SDS011;54230;52.402;6.276;2023-04-24T01:35:00;7.1;;;4.7;;
67344;SDS011;54230;52.402;6.276;2023-04-24T01:40:00;6.9;;;4.5;;
67344;SDS011;54230;52.402;6.276;2023-04-24T01:45:00;6.1;;;4.3;;
67344;SDS011;54230;52.402;6.276;2023-04-24T01:50:00;8.0;;;4.2;;
67344;SDS011;54230;52.402;6.276;2023-04-24T01:55:00;6.0;;;4.1;;
67344;SDS011;54230;52.402;6.276;2023-04-24T02:00:00;5.3;;;3.9;;
67344;SDS011;54230;52.402;6.276;2023-04-24T02:05:00;5.5;;;3.7;;
67344;SDS011;54230;52.402;6.276;2023-04-24T02:10:00;6.2;;;4.2;;
67344;SDS011;54230;52.402;6.276;2023-04-24T02:15:00;6.3;;;4.2;;
67344;SDS011;54230;52.402;6.276;2023-04-24T02:20:00;6.2;;;4.0;;
67344;SDS011;54230;52.402;6.276;2023-04-24T02:25:00;6.2;;;4.5;;
67344;SDS011;54230;52.402;6.276;2023-04-24T02:30:00;6.8;;;4.5;;
67344;SDS011;54230;52.402;6.276;2023-04-24T02:35:00;6.4;;;4.5;;
67344;SDS011;54230;52.402;6.276;2023-04-24T02:40:00;7.2;;;4.9;;
67344;SDS011;54230;52.402;6.276;2023-04-24T02:45:00;7.4;;;4.8;;
67344;SDS011;54230;52.402;6.276;2023-04-24T02:50:00;7.2;;;5.0;;
67344;SDS011;54230;52.402;6.276;2023-04-24T02:55:00;7.0;;;4.7;;
67344;SDS011;54230;52.402;6.276;2023-04-24T03:00:00;6.2;;;4.7;;
67344;SDS011;54230;52.402;6.276;2023-04-24T03:05:00;6.9;;;4.9;;
67344;SDS011;54230;52.402;6.276;2023-04-24T03:10:00;7.7;;;5.1;;
67344;SDS011;54230;52.402;6.276;2023-04-24T03:15:00;8.6;;;5.5;;
67344;SDS011;54230;52.402;6.276;2023-04-24T03:20:00;8.1;;;5.6;;
67344;SDS011;54230;52.402;6.276;2023-04-24T03:25:00;8.4;;;6.0;;
67344;SDS011;54230;52.402;6.276;2023-04-24T03:30:00;8.6;;;5.6;;
67344;SDS011;54230;52.402;6.276;2023-04-24T03:35:00;7.5;;;5.0;;
67344;SDS011;54230;52.402;6.276;2023-04-24T03:40:00;6.6;;;4.7;;
67344;SDS011;54230;52.402;6.276;2023-04-24T03:45:00;6.5;;;4.7;;
67344;SDS011;54230;52.402;6.276;2023-04-24T03:50:00;6.8;;;4.3;;
67344;SDS011;54230;52.402;6.276;2023-04-24T03:55:00;6.0;;;4.1;;
67344;SDS011;54230;52.402;6.276;2023-04-24T04:00:00;7.0;;;4.3;;
67344;SDS011;54230;52.402;6.276;2023-04-24T04:05:00;7.2;;;4.5;;
67344;SDS011;54230;52.402;6.276;2023-04-24T04:10:00;6.7;;;4.6;;
67344;SDS011;54230;52.402;6.276;2023-04-24T04:15:00;6.8;;;4.7;;
67344;SDS011;54230;52.402;6.276;2023-04-24T04:20:00;9.5;;;5.1;;
67344;SDS011;54230;52.402;6.276;2023-04-24T04:25:00;8.5;;;5.4;;
67344;SDS011;54230;52.402;6.276;2023-04-24T04:30:00;8.8;;;5.5;;
67344;SDS011;54230;52.402;6.276;2023-04-24T04:35:00;10.6;;;6.0;;
67344;SDS011;54230;52.402;6.276;2023-04-24T04:40:00;9.9;;;6.2;;
67344;SDS011;54230;52.402;6.276;2023-04-24T04:45:00;10.4;;;5.8;;
67344;SDS011;54230;52.402;6.276;2023-04-24T04:50:00;11.2;;;5.5;;
67344;SDS011;54230;52.402;6.276;2023-04-24T04:55:00;10.0;;;5.6;;
67344;SDS011;54230;52.402;6.276;2023-04-24T05:00:00;12.8;;;5.5;;
67344;SDS011;54230;52.402;6.276;2023-04-24T05:05:00;10.1;;;5.2;;
67344;SDS011;54230;52.402;6.276;2023-04-24T05:10:00;10.4;;;5.3;;
67344;SDS011;54230;52.402;6.276;2023-04-24T05:15:00;8.8;;;4.3;;
67344;SDS011;54230;52.402;6.276;2023-04-24T05:20:00;8.9;;;4.4;;
67344;SDS011;54230;52.402;6.276;2023-04-24T05:25:00;8.3;;;4.3;;
67344;SDS011;54230;52.402;6.276;2023-04-24T05:30:00;8.2;;;4.6;;
67344;SDS011;54230;52.402;6.276;2023-04-24T05:35:00;8.2;;;4.0;;
67344;SDS011;54230;52.402;6.276;2023-04-24T05:40:00;8.4;;;4.1;;
67344;SDS011;54230;52.402;6.276;2023-04-24T05:45:00;6.0;;;3.6;;
67344;SDS011;54230;52.402;6.276;2023-04-24T05:50:00;6.1;;;3.3;;
67344;SDS011;54230;52.402;6.276;2023-04-24T05:55:00;7.0;;;3.3;;
67344;SDS011;54230;52.402;6.276;2023-04-24T06:00:00;5.3;;;3.0;;
67344;SDS011;54230;52.402;6.276;2023-04-24T06:05:00;5.8;;;2.9;;
67344;SDS011;54230;52.402;6.276;2023-04-24T06:10:00;5.4;;;2.8;;
67344;SDS011;54230;52.402;6.276;2023-04-24T06:15:00;5.4;;;2.7;;
67344;SDS011;54230;52.402;6.276;2023-04-24T06:20:00;6.7;;;3.5;;
67344;SDS011;54230;52.402;6.276;2023-04-24T06:25:00;8.6;;;3.6;;
67344;SDS011;54230;52.402;6.276;2023-04-24T06:30:00;8.1;;;4.4;;
67344;SDS011;54230;52.402;6.276;2023-04-24T06:35:00;9.2;;;4.7;;
67344;SDS011;54230;52.402;6.276;2023-04-24T06:40:00;8.0;;;4.3;;
67344;SDS011;54230;52.402;6.276;2023-04-24T06:45:00;8.8;;;4.4;;
67344;SDS011;54230;52.402;6.276;2023-04-24T06:50:00;7.6;;;3.8;;
67344;SDS011;54230;52.402;6.276;2023-04-24T06:55:00;9.8;;;4.6;;
67344;SDS011;54230;52.402;6.276;2023-04-24T07:00:00;11.4;;;5.0;;
67344;SDS011;54230;52.402;6.276;2023-04-24T07:05:00;8.9;;;4.2;;
67344;SDS011;54230;52.402;6.276;2023-04-24T07:10:00;11.3;;;3.8;;
67344;SDS011;54230;52.402;6.276;2023-04-24T07:15:00;9.1;;;4.1;;
67344;SDS011;54230;52.402;6.276;2023-04-24T07:20:00;11.9;;;4.3;;
67344;SDS011;54230;52.402;6.276;2023-04-24T07:25:00;10.6;;;4.5;;
67344;SDS011;54230;52.402;6.276;2023-04-24T07:30:00;12.5;;;5.0;;
67344;SDS011;54230;52.402;6.276;2023-04-24T07:35:00;11.7;;;4.2;;
67344;SDS011;54230;52.402;6.276;2023-04-24T07:40:00;9.7;;;4.2;;
67344;SDS011;54230;52.402;6.276;2023-04-24T07:45:00;8.5;;;2.9;;
67344;SDS011;54230;52.402;6.276;2023-04-24T07:50:00;8.1;;;3.2;;
67344;SDS011;54230;52.402;6.276;2023-04-24T07:55:00;7.8;;;3.1;;
67344;SDS011;54230;52.402;6.276;2023-04-24T08:00:00;19.7;;;4.1;;
67344;SDS011;54230;52.402;6.276;2023-04-24T08:05:00;12.8;;;3.6;;
67344;SDS011;54230;52.402;6.276;2023-04-24T08:10:00;8.3;;;3.6;;
67344;SDS011;54230;52.402;6.276;2023-04-24T08:15:00;11.8;;;4.5;;
67344;SDS011;54230;52.402;6.276;2023-04-24T08:20:00;18.8;;;5.9;;
67344;SDS011;54230;52.402;6.276;2023-04-24T08:25:00;25.6;;;8.8;;
67344;SDS011;54230;52.402;6.276;2023-04-24T08:30:00;32.1;;;9.9;;
67344;SDS011;54230;52.402;6.276;2023-04-24T08:35:00;31.1;;;9.6;;
67344;SDS011;54230;52.402;6.276;2023-04-24T08:40:00;26.4;;;9.7;;
67344;SDS011;54230;52.402;6.276;2023-04-24T08:45:00;31.2;;;10.3;;
67344;SDS011;54230;52.402;6.276;2023-04-24T08:50:00;26.9;;;10.1;;
67344;SDS011;54230;52.402;6.276;2023-04-24T08:55:00;34.0;;;11.3;;
67344;SDS011;54230;52.402;6.276;2023-04-24T09:00:00;40.4;;;12.4;;
67344;SDS011;54230;52.402;6.276;2023-04-24T09:05:00;40.3;;;12.7;;
67344;SDS011;54230;52.402;6.276;2023-04-24T09:10:00;38.7;;;12.4;;
67344;SDS011;54230;52.402;6.276;2023-04-24T09:15:00;39.3;;;13.2;;
67344;SDS011;54230;52.402;6.276;2023-04-24T09:20:00;34.8;;;11.4;;
67344;SDS011;54230;52.402;6.276;2023-04-24T09:25:01;36.3;;;11.7;;
67344;SDS011;54230;52.402;6.276;2023-04-24T09:30:00;33.0;;;10.9;;
67344;SDS011;54230;52.402;6.276;2023-04-24T09:35:08;38.0;;;11.2;;
67344;SDS011;54230;52.402;6.276;2023-04-24T09:40:07;31.8;;;10.4;;
67344;SDS011;54230;52.402;6.276;2023-04-24T09:45:00;32.8;;;9.9;;
67344;SDS011;54230;52.402;6.276;2023-04-24T09:50:01;33.7;;;9.2;;
67344;SDS011;54230;52.402;6.276;2023-04-24T09:55:00;24.9;;;7.4;;
67344;SDS011;54230;52.402;6.276;2023-04-24T10:00:00;24.9;;;7.3;;
67344;SDS011;54230;52.402;6.276;2023-04-24T10:05:00;19.1;;;6.3;;
67344;SDS011;54230;52.402;6.276;2023-04-24T10:10:00;21.2;;;6.3;;
67344;SDS011;54230;52.402;6.276;2023-04-24T10:15:00;22.7;;;6.4;;
67344;SDS011;54230;52.402;6.276;2023-04-24T10:20:00;20.2;;;5.8;;
67344;SDS011;54230;52.402;6.276;2023-04-24T10:25:00;23.4;;;6.5;;
67344;SDS011;54230;52.402;6.276;2023-04-24T10:30:00;22.2;;;5.3;;
67344;SDS011;54230;52.402;6.276;2023-04-24T10:35:00;22.9;;;6.0;;
67344;SDS011;54230;52.402;6.276;2023-04-24T10:40:00;21.8;;;5.7;;
67344;SDS011;54230;52.402;6.276;2023-04-24T10:45:04;27.5;;;5.9;;
67344;SDS011;54230;52.402;6.276;2023-04-24T10:50:00;29.8;;;5.4;;
67344;SDS011;54230;52.402;6.276;2023-04-24T10:55:01;18.8;;;4.2;;
67344;SDS011;54230;52.402;6.276;2023-04-24T11:05:02;22.6;;;4.4;;
67344;SDS011;54230;52.402;6.276;2023-04-24T11:10:00;14.2;;;4.1;;
67344;SDS011;54230;52.402;6.276;2023-04-24T11:15:01;12.9;;;3.8;;
67344;SDS011;54230;52.402;6.276;2023-04-24T11:20:01;11.3;;;3.5;;
67344;SDS011;54230;52.402;6.276;2023-04-24T11:25:00;13.0;;;3.6;;
67344;SDS011;54230;52.402;6.276;2023-04-24T11:30:00;12.1;;;3.8;;
67344;SDS011;54230;52.402;6.276;2023-04-24T11:35:00;12.4;;;3.7;;
67344;SDS011;54230;52.402;6.276;2023-04-24T11:40:00;10.9;;;3.7;;
67344;SDS011;54230;52.402;6.276;2023-04-24T11:45:00;12.0;;;3.5;;
67344;SDS011;54230;52.402;6.276;2023-04-24T11:50:00;9.8;;;2.9;;
67344;SDS011;54230;52.402;6.276;2023-04-24T11:55:00;10.5;;;3.3;;
67344;SDS011;54230;52.402;6.276;2023-04-24T12:00:00;12.5;;;2.9;;
67344;SDS011;54230;52.402;6.276;2023-04-24T12:05:00;8.0;;;2.8;;
67344;SDS011;54230;52.402;6.276;2023-04-24T12:10:00;9.8;;;3.1;;
67344;SDS011;54230;52.402;6.276;2023-04-24T12:15:01;7.0;;;2.3;;
67344;SDS011;54230;52.402;6.276;2023-04-24T12:20:01;4.5;;;2.0;;
67344;SDS011;54230;52.402;6.276;2023-04-24T12:25:00;4.2;;;1.9;;
67344;SDS011;54230;52.402;6.276;2023-04-24T12:30:00;6.6;;;2.1;;
67344;SDS011;54230;52.402;6.276;2023-04-24T12:35:00;6.5;;;2.2;;
67344;SDS011;54230;52.402;6.276;2023-04-24T12:40:00;5.3;;;1.8;;
67344;SDS011;54230;52.402;6.276;2023-04-24T12:45:03;5.1;;;1.9;;
67344;SDS011;54230;52.402;6.276;2023-04-24T12:50:00;5.3;;;1.9;;
67344;SDS011;54230;52.402;6.276;2023-04-24T12:55:00;6.2;;;2.0;;
67344;SDS011;54230;52.402;6.276;2023-04-24T13:00:00;6.7;;;1.9;;
67344;SDS011;54230;52.402;6.276;2023-04-24T13:05:00;7.0;;;1.9;;
67344;SDS011;54230;52.402;6.276;2023-04-24T13:10:00;5.1;;;1.8;;
67344;SDS011;54230;52.402;6.276;2023-04-24T13:15:00;5.9;;;1.8;;
67344;SDS011;54230;52.402;6.276;2023-04-24T13:20:00;5.3;;;2.1;;
67344;SDS011;54230;52.402;6.276;2023-04-24T13:25:00;6.4;;;1.8;;
67344;SDS011;54230;52.402;6.276;2023-04-24T13:30:00;4.5;;;1.9;;
67344;SDS011;54230;52.402;6.276;2023-04-24T13:35:00;5.5;;;1.8;;
67344;SDS011;54230;52.402;6.276;2023-04-24T13:40:00;6.8;;;1.8;;
67344;SDS011;54230;52.402;6.276;2023-04-24T13:45:00;6.7;;;2.0;;
67344;SDS011;54230;52.402;6.276;2023-04-24T13:50:00;5.4;;;1.9;;
67344;SDS011;54230;52.402;6.276;2023-04-24T13:55:00;6.8;;;2.1;;
67344;SDS011;54230;52.402;6.276;2023-04-24T14:00:00;6.7;;;1.8;;
67344;SDS011;54230;52.402;6.276;2023-04-24T14:05:00;9.9;;;2.0;;
67344;SDS011;54230;52.402;6.276;2023-04-24T14:10:00;5.3;;;1.9;;
67344;SDS011;54230;52.402;6.276;2023-04-24T14:15:00;7.2;;;2.1;;
67344;SDS011;54230;52.402;6.276;2023-04-24T14:20:00;8.0;;;2.3;;
67344;SDS011;54230;52.402;6.276;2023-04-24T14:25:00;10.3;;;2.3;;
67344;SDS011;54230;52.402;6.276;2023-04-24T14:30:00;8.6;;;2.8;;
67344;SDS011;54230;52.402;6.276;2023-04-24T14:35:00;10.9;;;2.7;;
67344;SDS011;54230;52.402;6.276;2023-04-24T14:40:00;10.4;;;2.7;;
67344;SDS011;54230;52.402;6.276;2023-04-24T14:45:00;8.9;;;2.7;;
67344;SDS011;54230;52.402;6.276;2023-04-24T14:50:00;9.0;;;2.4;;
67344;SDS011;54230;52.402;6.276;2023-04-24T14:55:00;11.6;;;2.5;;
67344;SDS011;54230;52.402;6.276;2023-04-24T15:00:00;11.0;;;2.7;;
67344;SDS011;54230;52.402;6.276;2023-04-24T15:05:00;9.8;;;2.8;;
67344;SDS011;54230;52.402;6.276;2023-04-24T15:10:00;12.2;;;2.9;;
67344;SDS011;54230;52.402;6.276;2023-04-24T15:15:00;13.3;;;3.1;;
67344;SDS011;54230;52.402;6.276;2023-04-24T15:20:00;11.7;;;2.8;;
67344;SDS011;54230;52.402;6.276;2023-04-24T15:25:00;10.5;;;3.1;;
67344;SDS011;54230;52.402;6.276;2023-04-24T15:30:00;12.3;;;3.0;;
67344;SDS011;54230;52.402;6.276;2023-04-24T15:35:00;10.3;;;2.9;;
67344;SDS011;54230;52.402;6.276;2023-04-24T15:40:00;9.5;;;3.0;;
67344;SDS011;54230;52.402;6.276;2023-04-24T15:45:00;13.2;;;3.4;;
67344;SDS011;54230;52.402;6.276;2023-04-24T15:50:00;11.4;;;2.6;;
67344;SDS011;54230;52.402;6.276;2023-04-24T15:55:00;10.6;;;3.1;;
67344;SDS011;54230;52.402;6.276;2023-04-24T16:00:00;10.7;;;3.0;;
67344;SDS011;54230;52.402;6.276;2023-04-24T16:05:00;9.4;;;2.9;;
67344;SDS011;54230;52.402;6.276;2023-04-24T16:10:00;11.1;;;3.0;;
67344;SDS011;54230;52.402;6.276;2023-04-24T16:15:00;13.2;;;3.1;;
67344;SDS011;54230;52.402;6.276;2023-04-24T16:20:00;11.2;;;3.2;;
67344;SDS011;54230;52.402;6.276;2023-04-24T16:25:00;15.3;;;3.7;;
67344;SDS011;54230;52.402;6.276;2023-04-24T16:30:00;12.6;;;3.1;;
67344;SDS011;54230;52.402;6.276;2023-04-24T16:35:00;10.2;;;3.1;;
67344;SDS011;54230;52.402;6.276;2023-04-24T16:40:00;11.4;;;3.3;;
67344;SDS011;54230;52.402;6.276;2023-04-24T16:45:00;9.5;;;3.0;;
67344;SDS011;54230;52.402;6.276;2023-04-24T16:50:00;9.4;;;2.8;;
67344;SDS011;54230;52.402;6.276;2023-04-24T16:55:00;9.1;;;2.8;;
67344;SDS011;54230;52.402;6.276;2023-04-24T17:00:00;8.0;;;2.7;;
67344;SDS011;54230;52.402;6.276;2023-04-24T17:05:00;10.0;;;2.3;;
67344;SDS011;54230;52.402;6.276;2023-04-24T17:10:00;8.4;;;2.4;;
67344;SDS011;54230;52.402;6.276;2023-04-24T17:15:00;10.8;;;3.0;;
67344;SDS011;54230;52.402;6.276;2023-04-24T17:20:00;12.1;;;2.9;;
67344;SDS011;54230;52.402;6.276;2023-04-24T17:25:00;9.5;;;2.9;;
67344;SDS011;54230;52.402;6.276;2023-04-24T17:30:00;11.6;;;3.0;;
67344;SDS011;54230;52.402;6.276;2023-04-24T17:35:00;8.9;;;3.1;;
67344;SDS011;54230;52.402;6.276;2023-04-24T17:40:00;12.9;;;3.2;;
67344;SDS011;54230;52.402;6.276;2023-04-24T17:45:00;10.4;;;2.6;;
67344;SDS011;54230;52.402;6.276;2023-04-24T17:50:00;10.8;;;2.7;;
67344;SDS011;54230;52.402;6.276;2023-04-24T17:55:00;9.2;;;2.8;;
67344;SDS011;54230;52.402;6.276;2023-04-24T18:00:00;10.3;;;2.9;;
67344;SDS011;54230;52.402;6.276;2023-04-24T18:05:00;9.0;;;2.6;;
67344;SDS011;54230;52.402;6.276;2023-04-24T18:10:00;10.9;;;2.6;;
67344;SDS011;54230;52.402;6.276;2023-04-24T18:15:00;10.6;;;3.2;;
67344;SDS011;54230;52.402;6.276;2023-04-24T18:20:00;11.9;;;3.0;;
67344;SDS011;54230;52.402;6.276;2023-04-24T18:25:00;11.6;;;3.0;;
67344;SDS011;54230;52.402;6.276;2023-04-24T18:30:00;10.0;;;2.9;;
67344;SDS011;54230;52.402;6.276;2023-04-24T18:35:00;12.7;;;2.9;;
67344;SDS011;54230;52.402;6.276;2023-04-24T18:40:00;7.9;;;2.6;;
67344;SDS011;54230;52.402;6.276;2023-04-24T18:45:00;7.8;;;2.1;;
67344;SDS011;54230;52.402;6.276;2023-04-24T18:50:00;11.2;;;2.9;;
67344;SDS011;54230;52.402;6.276;2023-04-24T18:55:00;11.4;;;3.3;;
67344;SDS011;54230;52.402;6.276;2023-04-24T19:00:00;13.9;;;3.3;;
67344;SDS011;54230;52.402;6.276;2023-04-24T19:05:00;11.1;;;3.2;;
67344;SDS011;54230;52.402;6.276;2023-04-24T19:10:00;8.3;;;2.5;;
67344;SDS011;54230;52.402;6.276;2023-04-24T19:15:00;9.8;;;3.1;;
67344;SDS011;54230;52.402;6.276;2023-04-24T19:20:00;9.3;;;2.8;;
67344;SDS011;54230;52.402;6.276;2023-04-24T19:25:00;9.7;;;2.9;;
67344;SDS011;54230;52.402;6.276;2023-04-24T19:30:00;8.9;;;2.8;;
67344;SDS011;54230;52.402;6.276;2023-04-24T19:35:00;7.5;;;2.9;;
67344;SDS011;54230;52.402;6.276;2023-04-24T19:40:00;12.7;;;3.0;;
67344;SDS011;54230;52.402;6.276;2023-04-24T19:45:00;10.4;;;3.2;;
67344;SDS011;54230;52.402;6.276;2023-04-24T19:50:00;10.5;;;2.9;;
67344;SDS011;54230;52.402;6.276;2023-04-24T19:55:00;10.2;;;3.1;;
67344;SDS011;54230;52.402;6.276;2023-04-24T20:00:00;10.6;;;3.1;;
67344;SDS011;54230;52.402;6.276;2023-04-24T20:05:00;12.3;;;3.5;;
67344;SDS011;54230;52.402;6.276;2023-04-24T20:10:00;13.5;;;3.6;;
67344;SDS011;54230;52.402;6.276;2023-04-24T20:15:01;12.7;;;3.7;;
67344;SDS011;54230;52.402;6.276;2023-04-24T20:20:00;11.7;;;3.5;;
67344;SDS011;54230;52.402;6.276;2023-04-24T20:25:00;15.2;;;3.3;;
67344;SDS011;54230;52.402;6.276;2023-04-24T20:30:00;10.9;;;3.1;;
67344;SDS011;54230;52.402;6.276;2023-04-24T20:35:00;11.2;;;3.1;;
67344;SDS011;54230;52.402;6.276;2023-04-24T20:40:00;10.4;;;3.0;;
67344;SDS011;54230;52.402;6.276;2023-04-24T20:45:00;11.6;;;3.4;;
67344;SDS011;54230;52.402;6.276;2023-04-24T20:50:00;11.8;;;3.2;;
67344;SDS011;54230;52.402;6.276;2023-04-24T20:55:00;14.1;;;3.3;;
67344;SDS011;54230;52.402;6.276;2023-04-24T21:00:00;11.9;;;3.1;;
67344;SDS011;54230;52.402;6.276;2023-04-24T21:05:00;11.9;;;3.3;;
67344;SDS011;54230;52.402;6.276;2023-04-24T21:10:00;9.9;;;3.0;;
67344;SDS011;54230;52.402;6.276;2023-04-24T21:15:00;9.3;;;2.8;;
67344;SDS011;54230;52.402;6.276;2023-04-24T21:20:00;10.4;;;3.5;;
67344;SDS011;54230;52.402;6.276;2023-04-24T21:25:00;10.8;;;3.1;;
67344;SDS011;54230;52.402;6.276;2023-04-24T21:30:00;10.4;;;2.6;;
67344;SDS011;54230;52.402;6.276;2023-04-24T21:35:00;12.1;;;3.0;;
67344;SDS011;54230;52.402;6.276;2023-04-24T21:40:00;10.0;;;2.6;;
67344;SDS011;54230;52.402;6.276;2023-04-24T21:45:00;7.1;;;2.7;;
67344;SDS011;54230;52.402;6.276;2023-04-24T21:50:00;14.9;;;2.5;;
67344;SDS011;54230;52.402;6.276;2023-04-24T21:55:00;9.1;;;2.7;;
67344;SDS011;54230;52.402;6.276;2023-04-24T22:00:00;13.4;;;3.0;;
67344;SDS011;54230;52.402;6.276;2023-04-24T22:05:00;23.5;;;3.7;;
67344;SDS011;54230;52.402;6.276;2023-04-24T22:10:00;16.9;;;3.5;;
67344;SDS011;54230;52.402;6.276;2023-04-24T22:15:00;19.2;;;3.9;;
67344;SDS011;54230;52.402;6.276;2023-04-24T22:20:00;23.7;;;4.0;;
67344;SDS011;54230;52.402;6.276;2023-04-24T22:25:00;23.5;;;4.4;;
67344;SDS011;54230;52.402;6.276;2023-04-24T22:30:00;26.7;;;4.6;;
67344;SDS011;54230;52.402;6.276;2023-04-24T22:35:00;21.8;;;4.4;;
67344;SDS011;54230;52.402;6.276;2023-04-24T22:40:00;29.1;;;5.1;;
67344;SDS011;54230;52.402;6.276;2023-04-24T22:45:00;28.5;;;5.3;;
67344;SDS011;54230;52.402;6.276;2023-04-24T22:50:00;28.7;;;5.0;;
67344;SDS011;54230;52.402;6.276;2023-04-24T22:55:00;28.3;;;5.4;;
67344;SDS011;54230;52.402;6.276;2023-04-24T23:00:01;35.4;;;5.2;;
67344;SDS011;54230;52.402;6.276;2023-04-24T23:05:00;23.9;;;4.8;;
67344;SDS011;54230;52.402;6.276;2023-04-24T23:10:00;32.2;;;5.1;;
67344;SDS011;54230;52.402;6.276;2023-04-24T23:15:00;30.8;;;5.2;;
67344;SDS011;54230;52.402;6.276;2023-04-24T23:20:00;30.6;;;5.0;;
67344;SDS011;54230;52.402;6.276;2023-04-24T23:25:00;33.4;;;5.2;;
67344;SDS011;54230;52.402;6.276;2023-04-24T23:30:00;29.4;;;5.4;;
67344;SDS011;54230;52.402;6.276;2023-04-24T23:35:00;25.9;;;4.7;;
67344;SDS011;54230;52.402;6.276;2023-04-24T23:40:00;26.4;;;4.7;;
67344;SDS011;54230;52.402;6.276;2023-04-24T23:45:00;31.3;;;5.5;;
67344;SDS011;54230;52.402;6.276;2023-04-24T23:50:00;27.6;;;4.9;;
67344;SDS011;54230;52.402;6.276;2023-04-24T23:55:00;26.3;;;4.8;;
